Terminal Aerodrome Forecast
Issued by NWS

Current Version | Previous Version | Text Only | Print | Product List | Glossary Off
Versions: 1 2 3 4 5 6 7 8 9 10 11 12 13 14 15 16 17 18 19

000
FTUS41 KILN 221700
TAFLCK
TAF
KLCK 221731Z 2218/2318 27020G30KT P6SM OVC040
     FM230100 28012KT P6SM BKN050
     FM230600 25007KT P6SM SCT050
     FM231400 28014G22KT P6SM BKN050=

USA.gov is the U.S. government's official web portal to all federal, state and local government web resources and services.